Time;durP1;ratioP1;P1;durP2;ratioP2;P2;SDS_P1;SDS_P2;PMS_P1;PMS_P2;Temp;Humidity;BMP_temperature;BMP_pressure;BME280_temperature;BME280_humidity;BME280_pressure;Samples;Min_cycle;Max_cycle;Signal;HPM_P1;HPM_P2
2022/12/19 00:00:45;;;;;;;1.03;0.40;;;13.10;99.90;;;;;;5012128;28;20206;-57
2022/12/19 00:03:11;;;;;;;2.80;0.53;;;13.40;99.90;;;;;;5011848;28;20665;-57
2022/12/19 00:05:38;;;;;;;3.83;0.30;;;13.30;99.90;;;;;;5011280;28;20186;-57
2022/12/19 00:08:05;;;;;;;6.77;0.80;;;12.80;99.90;;;;;;5011179;28;20171;-58
2022/12/19 00:10:31;;;;;;;3.73;0.60;;;13.40;99.90;;;;;;5011651;28;20227;-58
2022/12/19 00:12:56;;;;;;;5.03;0.90;;;14.90;99.90;;;;;;5011802;28;20210;-57
2022/12/19 00:15:22;;;;;;;5.10;0.87;;;13.00;99.90;;;;;;5011547;28;20253;-57
2022/12/19 00:17:48;;;;;;;3.40;0.60;;;13.50;99.90;;;;;;5011766;28;20266;-58
2022/12/19 00:20:14;;;;;;;2.43;0.50;;;13.20;99.90;;;;;;5011722;28;20186;-58
2022/12/19 00:22:39;;;;;;;4.80;1.20;;;13.10;99.90;;;;;;5011540;28;20193;-58
2022/12/19 00:25:05;;;;;;;2.53;0.70;;;13.30;99.90;;;;;;5011388;28;20209;-57
2022/12/19 00:27:35;;;;;;;9.87;1.40;;;13.30;99.90;;;;;;5011557;28;20232;-57
2022/12/19 00:30:00;;;;;;;7.73;1.13;;;13.30;99.90;;;;;;5011704;28;20180;-57
2022/12/19 00:32:26;;;;;;;7.73;1.33;;;13.40;99.90;;;;;;5011491;28;20681;-57
2022/12/19 00:34:52;;;;;;;10.57;1.40;;;13.20;99.90;;;;;;5011408;28;20179;-57
2022/12/19 00:37:17;;;;;;;6.73;1.07;;;13.30;99.90;;;;;;5010769;28;20181;-57
2022/12/19 00:39:43;;;;;;;6.60;1.20;;;13.70;99.90;;;;;;5004673;28;20182;-57
2022/12/19 00:42:09;;;;;;;7.63;1.33;;;;;;;;;;5007792;28;20183;-58
2022/12/19 00:44:35;;;;;;;7.63;1.17;;;13.50;99.90;;;;;;5002632;28;20190;-57
2022/12/19 00:47:00;;;;;;;7.37;1.10;;;13.40;99.90;;;;;;5009974;28;20175;-57
2022/12/19 00:49:26;;;;;;;6.53;1.57;;;13.30;99.90;;;;;;5010303;28;20218;-56
2022/12/19 00:51:52;;;;;;;8.87;1.87;;;13.50;99.90;;;;;;5010148;28;20711;-57
2022/12/19 00:54:17;;;;;;;8.53;1.47;;;13.60;99.90;;;;;;4997821;28;20759;-57
2022/12/19 00:56:43;;;;;;;4.00;1.00;;;13.50;99.90;;;;;;5005591;28;20182;-57
2022/12/19 00:59:09;;;;;;;5.97;1.63;;;13.60;99.90;;;;;;5010038;28;20229;-57
2022/12/19 01:01:38;;;;;;;7.80;1.00;;;13.60;99.90;;;;;;5010379;28;20167;-57
2022/12/19 01:04:05;;;;;;;5.17;1.00;;;13.80;99.90;;;;;;5009639;28;20183;-58
2022/12/19 01:06:31;;;;;;;8.50;1.20;;;13.40;99.90;;;;;;5003868;28;20244;-56
2022/12/19 01:08:56;;;;;;;10.93;1.63;;;13.70;99.90;;;;;;5010334;28;20538;-57
2022/12/19 01:12:44;;;;;;;10.30;1.73;;;13.60;99.90;;;;;;5010416;28;20233;-57
2022/12/19 01:14:11;;;;;;;8.47;1.80;;;13.60;99.90;;;;;;5014311;28;20609;-59
2022/12/19 01:16:37;;;;;;;15.23;2.13;;;13.80;99.90;;;;;;5014915;28;20202;-60
2022/12/19 01:19:03;;;;;;;6.90;1.60;;;13.70;99.90;;;;;;5015168;28;20567;-59
2022/12/19 01:21:29;;;;;;;13.13;2.10;;;;;;;;;;5014988;28;20547;-59
2022/12/19 01:23:54;;;;;;;11.63;1.73;;;13.60;99.90;;;;;;5014937;28;20249;-59
2022/12/19 01:26:20;;;;;;;7.33;1.27;;;13.70;99.90;;;;;;5013684;28;20175;-59
2022/12/19 01:28:46;;;;;;;7.77;1.53;;;13.60;99.90;;;;;;5014868;28;20528;-58
2022/12/19 01:31:11;;;;;;;8.57;1.63;;;14.10;99.90;;;;;;5014734;28;20174;-59
2022/12/19 01:33:37;;;;;;;10.98;1.55;;;13.50;99.90;;;;;;5014569;28;20229;-59
2022/12/19 01:36:06;;;;;;;7.17;1.40;;;13.90;99.90;;;;;;5007007;28;20226;-59
2022/12/19 01:38:36;;;;;;;5.30;1.10;;;13.70;99.90;;;;;;5014897;28;20209;-59
2022/12/19 01:41:03;;;;;;;5.53;1.03;;;13.70;99.90;;;;;;5014537;28;20346;-58
2022/12/19 01:43:32;;;;;;;5.57;1.17;;;13.70;99.90;;;;;;5014528;28;20178;-58
2022/12/19 01:46:01;;;;;;;8.33;1.50;;;13.70;99.90;;;;;;5014048;28;20174;-59
2022/12/19 01:48:34;;;;;;;6.67;1.30;;;13.70;99.90;;;;;;4998668;28;20266;-59
2022/12/19 01:51:22;;;;;;;9.37;1.27;;;15.60;99.90;;;;;;5014382;28;20178;-59
2022/12/19 01:53:51;;;;;;;9.63;1.20;;;13.60;99.90;;;;;;5014061;28;20228;-58
2022/12/19 01:56:23;;;;;;;5.97;1.80;;;13.40;99.90;;;;;;5014427;28;20185;-59
2022/12/19 01:58:51;;;;;;;5.57;1.27;;;13.70;99.90;;;;;;5013605;28;20672;-59
2022/12/19 02:01:17;;;;;;;5.40;1.40;;;13.60;99.90;;;;;;5013153;28;20270;-58
2022/12/19 02:03:44;;;;;;;5.00;1.40;;;13.80;99.90;;;;;;5014169;28;20214;-59
2022/12/19 02:06:12;;;;;;;6.20;1.13;;;14.00;99.90;;;;;;5013526;28;20255;-59
2022/12/19 02:08:40;;;;;;;7.77;1.40;;;13.70;99.90;;;;;;5013841;28;20174;-59
2022/12/19 02:11:05;;;;;;;8.77;1.43;;;13.60;99.90;;;;;;5012278;28;20638;-58
2022/12/19 02:13:32;;;;;;;6.33;0.90;;;;;;;;;;5013592;28;20264;-58
2022/12/19 02:16:12;;;;;;;4.33;1.03;;;13.60;99.90;;;;;;5013897;28;20171;-59
2022/12/19 02:18:41;;;;;;;8.40;1.47;;;13.50;99.90;;;;;;5013951;28;20174;-58
2022/12/19 02:21:24;;;;;;;5.57;1.23;;;13.60;99.90;;;;;;5014061;28;20171;-58
2022/12/19 02:24:14;;;;;;;8.30;1.40;;;13.70;99.90;;;;;;5012808;28;20609;-58
2022/12/19 02:27:13;;;;;;;6.40;1.10;;;13.40;99.90;;;;;;5013702;28;20185;-58
2022/12/19 02:29:45;;;;;;;5.37;1.20;;;13.40;99.90;;;;;;5013680;28;20179;-58
2022/12/19 02:32:21;;;;;;;8.73;1.60;;;13.30;99.90;;;;;;5011303;28;20179;-58
2022/12/19 02:34:57;;;;;;;10.30;2.23;;;13.70;99.90;;;;;;5009740;28;20198;-57
2022/12/19 02:37:32;;;;;;;14.83;2.30;;;13.50;99.90;;;;;;5013941;28;20205;-57
2022/12/19 02:40:05;;;;;;;7.43;1.87;;;13.60;99.90;;;;;;5013665;28;20217;-57
2022/12/19 02:42:36;;;;;;;9.03;2.00;;;13.60;99.90;;;;;;5013440;28;20177;-57
2022/12/19 02:45:05;;;;;;;10.20;2.77;;;13.70;99.90;;;;;;5004358;28;20187;-57
2022/12/19 02:47:32;;;;;;;13.83;1.77;;;13.60;99.90;;;;;;5012146;28;20229;-58
2022/12/19 02:49:58;;;;;;;6.93;1.97;;;13.60;99.90;;;;;;5012570;28;20317;-58
2022/12/19 02:52:24;;;;;;;13.90;2.20;;;;;;;;;;5012989;28;20699;-58
2022/12/19 02:54:54;;;;;;;11.17;1.83;;;13.80;99.90;;;;;;5013019;28;20185;-58
2022/12/19 02:57:27;;;;;;;16.87;3.27;;;13.70;99.90;;;;;;5013116;28;20254;-58
2022/12/19 03:00:03;;;;;;;18.67;3.10;;;13.50;99.90;;;;;;5012716;28;20523;-59
2022/12/19 03:02:44;;;;;;;12.30;2.53;;;13.90;99.90;;;;;;5012622;28;20190;-59
2022/12/19 03:05:12;;;;;;;10.77;2.47;;;13.70;99.90;;;;;;5011177;28;20178;-58
2022/12/19 03:07:54;;;;;;;14.87;2.93;;;13.60;99.90;;;;;;5007938;28;20736;-57
2022/12/19 03:10:36;;;;;;;14.50;3.03;;;15.70;99.90;;;;;;4996824;28;20183;-57
2022/12/19 03:13:12;;;;;;;22.27;3.10;;;14.10;99.90;;;;;;5009724;28;20684;-57
2022/12/19 03:15:39;;;;;;;18.53;3.03;;;13.80;99.90;;;;;;5012656;28;20249;-57
2022/12/19 03:18:05;;;;;;;19.00;3.53;;;13.90;99.90;;;;;;5011670;28;21600;-57
2022/12/19 03:21:09;;;;;;;21.07;3.83;;;13.80;99.90;;;;;;5012542;28;20162;-56
2022/12/19 03:23:35;;;;;;;27.10;3.37;;;13.90;99.90;;;;;;4999542;28;20182;-56
2022/12/19 03:26:05;;;;;;;15.30;2.73;;;13.70;99.90;;;;;;5012091;28;20717;-57
2022/12/19 03:28:42;;;;;;;18.60;3.07;;;13.80;99.90;;;;;;5004373;28;20222;-57
2022/12/19 03:31:11;;;;;;;14.90;2.77;;;14.00;99.90;;;;;;5004923;28;20185;-57
2022/12/19 03:33:39;;;;;;;11.57;1.63;;;14.20;99.90;;;;;;5004926;28;20305;-58
2022/12/19 03:36:10;;;;;;;7.73;1.63;;;13.20;99.90;;;;;;5003904;28;20183;-58
2022/12/19 03:38:38;;;;;;;8.63;1.80;;;13.70;99.90;;;;;;5012523;28;20175;-58
2022/12/19 03:41:08;;;;;;;11.93;2.63;;;13.40;99.90;;;;;;5012263;28;20193;-56
2022/12/19 03:43:35;;;;;;;12.37;1.77;;;13.40;99.90;;;;;;5012278;28;20166;-57
2022/12/19 03:46:24;;;;;;;3.67;0.80;;;13.80;99.90;;;;;;5011191;28;20170;-58
2022/12/19 03:48:52;;;;;;;5.10;1.20;;;13.40;99.90;;;;;;5012082;28;20222;-58
2022/12/19 03:51:44;;;;;;;7.10;1.43;;;13.60;99.90;;;;;;5012179;28;20175;-56
2022/12/19 03:54:22;;;;;;;7.13;1.27;;;13.40;99.90;;;;;;5011984;28;20215;-58
2022/12/19 03:57:13;;;;;;;9.40;1.33;;;13.80;99.90;;;;;;5012078;28;20253;-58
2022/12/19 03:59:42;;;;;;;3.27;0.73;;;13.80;99.90;;;;;;5011954;28;20633;-57
2022/12/19 04:02:10;;;;;;;12.30;1.40;;;12.70;99.90;;;;;;5011838;28;20175;-57
2022/12/19 04:04:40;;;;;;;9.53;1.67;;;13.60;99.90;;;;;;5011988;28;20198;-58
2022/12/19 04:07:07;;;;;;;11.40;1.80;;;13.40;99.90;;;;;;5011783;28;20174;-57
2022/12/19 04:09:36;;;;;;;6.73;1.43;;;13.60;99.90;;;;;;5017129;28;20175;-57
2022/12/19 04:12:11;;;;;;;14.27;2.10;;;13.60;99.90;;;;;;5011045;28;20213;-58
2022/12/19 04:14:38;;;;;;;9.33;1.87;;;13.40;99.90;;;;;;5011469;28;20692;-57
2022/12/19 04:17:06;;;;;;;6.50;1.07;;;13.50;99.90;;;;;;5011419;28;20185;-58
2022/12/19 04:19:39;;;;;;;6.00;1.27;;;12.60;99.90;;;;;;5011516;28;20189;-55
2022/12/19 04:22:16;;;;;;;5.17;0.67;;;13.60;99.90;;;;;;5011499;28;20253;-57
2022/12/19 04:24:45;;;;;;;6.83;1.67;;;13.40;99.90;;;;;;5005268;28;20366;-57
2022/12/19 04:27:12;;;;;;;4.53;0.87;;;13.40;99.90;;;;;;5010707;28;20167;-57
2022/12/19 04:29:38;;;;;;;5.37;0.80;;;13.30;99.90;;;;;;5011092;28;20181;-60
2022/12/19 04:32:06;;;;;;;3.20;0.70;;;13.80;99.90;;;;;;5001907;28;20175;-58
2022/12/19 04:34:32;;;;;;;2.90;0.87;;;13.50;99.90;;;;;;5004223;28;20237;-57
2022/12/19 04:37:01;;;;;;;6.50;1.03;;;13.50;99.90;;;;;;5010863;28;20206;-57
2022/12/19 04:39:27;;;;;;;7.37;1.63;;;;;;;;;;5010765;28;20179;-57
2022/12/19 04:41:53;;;;;;;6.30;1.20;;;13.30;99.90;;;;;;5011476;28;20182;-57
2022/12/19 04:44:19;;;;;;;7.07;1.50;;;13.80;99.90;;;;;;5011244;28;20175;-57
2022/12/19 04:46:45;;;;;;;7.03;1.50;;;;;;;;;;5010775;28;20171;-57
2022/12/19 04:49:10;;;;;;;4.43;0.80;;;13.40;99.90;;;;;;5009267;28;20269;-57
2022/12/19 04:51:36;;;;;;;5.50;1.30;;;13.50;99.90;;;;;;5010983;28;20202;-57
2022/12/19 04:54:02;;;;;;;7.33;1.00;;;13.70;99.90;;;;;;5010815;28;20217;-57
2022/12/19 04:56:27;;;;;;;7.13;1.10;;;13.50;99.90;;;;;;5010890;28;20237;-57
2022/12/19 04:58:57;;;;;;;3.13;1.00;;;13.70;99.90;;;;;;5010256;28;20183;-57
2022/12/19 05:01:23;;;;;;;4.67;1.10;;;13.30;99.90;;;;;;5010415;28;20707;-57
2022/12/19 05:03:49;;;;;;;4.83;1.67;;;;;;;;;;5010677;28;20266;-56
2022/12/19 05:06:15;;;;;;;4.40;1.17;;;13.80;99.90;;;;;;5010046;28;20194;-56
2022/12/19 05:08:41;;;;;;;4.77;0.93;;;13.60;99.90;;;;;;5010602;28;20245;-57
2022/12/19 05:11:09;;;;;;;8.63;1.40;;;13.60;99.90;;;;;;5009653;28;20190;-57
2022/12/19 05:13:35;;;;;;;10.00;1.73;;;13.50;99.90;;;;;;5010330;28;20296;-57
2022/12/19 05:16:03;;;;;;;3.43;1.00;;;13.90;99.90;;;;;;5002980;28;20279;-56
2022/12/19 05:18:29;;;;;;;10.50;1.70;;;13.90;99.90;;;;;;5006285;28;20183;-56
2022/12/19 05:20:55;;;;;;;4.43;1.30;;;13.70;99.90;;;;;;5002629;28;20223;-56
2022/12/19 05:23:22;;;;;;;6.03;1.50;;;13.70;99.90;;;;;;5010742;28;20256;-57
2022/12/19 05:25:48;;;;;;;13.53;2.13;;;14.00;99.90;;;;;;5009447;28;20179;-57
2022/12/19 05:28:15;;;;;;;9.57;1.87;;;13.80;99.90;;;;;;5010773;28;20206;-57
2022/12/19 05:30:40;;;;;;;9.83;2.17;;;13.80;99.90;;;;;;5010560;28;20185;-57
2022/12/19 05:33:07;;;;;;;12.77;1.97;;;;;;;;;;5006712;28;20202;-58
2022/12/19 05:35:34;;;;;;;10.00;2.30;;;13.80;99.90;;;;;;5000858;28;20175;-57
2022/12/19 05:38:00;;;;;;;8.80;1.33;;;13.90;99.90;;;;;;5010639;28;20190;-58
2022/12/19 05:40:26;;;;;;;10.03;1.50;;;13.60;99.90;;;;;;5010534;28;20641;-57
2022/12/19 05:42:52;;;;;;;11.70;1.87;;;13.90;99.90;;;;;;5010673;28;20280;-57
2022/12/19 05:45:18;;;;;;;9.90;1.87;;;13.60;99.90;;;;;;5010443;28;20182;-59
2022/12/19 05:47:45;;;;;;;6.83;1.03;;;13.70;99.90;;;;;;5010666;28;20182;-58
2022/12/19 05:50:15;;;;;;;12.43;2.17;;;14.30;99.90;;;;;;5010482;28;20324;-57
2022/12/19 05:52:40;;;;;;;11.20;1.63;;;14.00;99.90;;;;;;5010630;28;20213;-56
2022/12/19 05:55:07;;;;;;;10.20;1.67;;;13.90;99.90;;;;;;5010743;28;20253;-56
2022/12/19 05:57:33;;;;;;;13.53;2.03;;;13.90;99.90;;;;;;5010614;28;20175;-57
2022/12/19 05:59:59;;;;;;;11.83;2.00;;;13.80;99.90;;;;;;5013401;28;20174;-58
2022/12/19 06:02:25;;;;;;;11.90;2.43;;;14.00;99.90;;;;;;5014141;28;20196;-57
2022/12/19 06:04:51;;;;;;;4.73;1.20;;;14.00;99.90;;;;;;5014161;28;20629;-57
2022/12/19 06:07:17;;;;;;;10.93;1.60;;;14.00;99.90;;;;;;5013648;28;20171;-57
2022/12/19 06:09:43;;;;;;;7.20;2.00;;;13.70;99.90;;;;;;5013316;28;20890;-57
2022/12/19 06:12:08;;;;;;;7.43;1.50;;;13.60;99.90;;;;;;5013527;28;20584;-56
2022/12/19 06:14:34;;;;;;;9.87;1.80;;;;;;;;;;5013439;28;20250;-56
2022/12/19 06:17:00;;;;;;;13.03;2.20;;;14.10;99.90;;;;;;5006022;28;20725;-57
2022/12/19 06:19:26;;;;;;;6.57;0.90;;;13.70;99.90;;;;;;5012698;28;20266;-57
2022/12/19 06:21:52;;;;;;;13.50;2.20;;;13.70;99.90;;;;;;5008780;28;20179;-57
2022/12/19 06:24:17;;;;;;;14.93;2.60;;;13.60;99.90;;;;;;5007561;28;20873;-57
2022/12/19 06:26:44;;;;;;;12.80;2.20;;;14.00;99.90;;;;;;5013000;28;20586;-57
2022/12/19 06:29:09;;;;;;;8.43;1.80;;;13.70;99.90;;;;;;5013315;28;20224;-57
2022/12/19 06:31:35;;;;;;;12.27;2.30;;;;;;;;;;5013259;28;20178;-57
2022/12/19 06:34:01;;;;;;;8.63;2.10;;;13.70;99.90;;;;;;5013069;28;20681;-57
2022/12/19 06:36:28;;;;;;;6.93;1.53;;;13.70;99.90;;;;;;5013565;28;20171;-57
2022/12/19 06:38:57;;;;;;;9.30;1.77;;;14.00;99.90;;;;;;5012909;28;20214;-57
2022/12/19 06:44:10;;;;;;;10.07;2.10;;;14.20;99.90;;;;;;5012986;28;20237;-57
2022/12/19 06:46:36;;;;;;;11.00;2.30;;;14.00;99.90;;;;;;5012890;28;20185;-57
2022/12/19 06:49:03;;;;;;;5.90;1.60;;;13.90;99.90;;;;;;5012901;28;20318;-56
2022/12/19 06:51:29;;;;;;;11.40;3.17;;;14.00;99.90;;;;;;5012922;28;20849;-57
2022/12/19 06:53:55;;;;;;;10.60;2.17;;;14.00;99.90;;;;;;5012193;28;20244;-57
2022/12/19 06:56:21;;;;;;;8.53;1.37;;;13.80;99.90;;;;;;5012729;28;20208;-58
2022/12/19 06:58:47;;;;;;;12.13;2.37;;;;;;;;;;5012905;28;20193;-58
2022/12/19 07:01:23;;;;;;;8.50;2.07;;;13.90;99.90;;;;;;5012247;28;20201;-57
2022/12/19 07:03:49;;;;;;;6.97;1.70;;;13.70;99.90;;;;;;4998363;28;20261;-57
2022/12/19 07:06:15;;;;;;;19.30;2.43;;;;;;;;;;4998888;28;20266;-59
2022/12/19 07:08:41;;;;;;;14.07;3.10;;;13.90;99.90;;;;;;5005429;28;20182;-58
2022/12/19 07:11:07;;;;;;;19.37;2.97;;;;;;;;;;5011191;28;20185;-58
2022/12/19 07:13:33;;;;;;;14.70;2.80;;;13.70;99.90;;;;;;5005010;28;20732;-57
2022/12/19 07:16:01;;;;;;;17.07;3.67;;;13.80;99.90;;;;;;5005348;28;20171;-57
2022/12/19 07:18:31;;;;;;;12.37;2.03;;;13.90;99.90;;;;;;5007662;28;20186;-57
2022/12/19 07:20:56;;;;;;;19.43;2.90;;;13.80;99.90;;;;;;5009739;28;20186;-58
2022/12/19 07:23:23;;;;;;;13.30;2.93;;;13.60;99.90;;;;;;5012178;28;20183;-58
2022/12/19 07:25:49;;;;;;;22.27;3.23;;;13.60;99.90;;;;;;5012098;28;20760;-59
2022/12/19 07:28:15;;;;;;;22.53;3.40;;;13.50;99.90;;;;;;5012549;28;20257;-58
2022/12/19 07:30:41;;;;;;;13.73;2.30;;;;;;;;;;5010880;28;20182;-58
2022/12/19 07:33:07;;;;;;;23.53;2.40;;;;;;;;;;5011905;28;20229;-58
2022/12/19 07:35:33;;;;;;;11.10;2.43;;;13.50;99.90;;;;;;5012301;28;20179;-58
2022/12/19 07:38:05;;;;;;;12.57;2.17;;;13.60;99.90;;;;;;5012193;28;20185;-58
2022/12/19 07:40:32;;;;;;;20.73;3.70;;;13.50;99.90;;;;;;5012199;28;20190;-57
2022/12/19 07:43:02;;;;;;;13.20;2.47;;;13.90;99.90;;;;;;5012328;28;20206;-57
2022/12/19 07:45:29;;;;;;;14.70;3.13;;;13.70;99.90;;;;;;5012169;28;20237;-58
2022/12/19 07:47:55;;;;;;;9.17;2.23;;;13.80;99.90;;;;;;5011946;28;20189;-58
2022/12/19 07:50:21;;;;;;;17.20;2.93;;;13.70;99.90;;;;;;5011807;28;20187;-59
2022/12/19 07:52:46;;;;;;;17.83;2.23;;;13.80;99.90;;;;;;5012029;28;20297;-59
2022/12/19 07:55:12;;;;;;;10.97;2.30;;;;;;;;;;5011924;28;20600;-58
2022/12/19 07:57:38;;;;;;;14.50;2.17;;;13.90;99.90;;;;;;5012103;28;20512;-58
2022/12/19 08:00:05;;;;;;;6.73;1.70;;;13.70;99.90;;;;;;5011836;28;20209;-59
2022/12/19 08:02:31;;;;;;;9.50;1.77;;;;;;;;;;5010650;28;20171;-58
2022/12/19 08:04:57;;;;;;;11.33;1.97;;;13.60;99.90;;;;;;5000210;28;20495;-58
2022/12/19 08:07:22;;;;;;;17.33;2.73;;;13.60;99.90;;;;;;5004181;28;20411;-58
2022/12/19 08:09:48;;;;;;;26.27;4.07;;;13.60;99.90;;;;;;5006394;28;20646;-58
2022/12/19 08:12:14;;;;;;;19.63;3.13;;;;;;;;;;5003712;28;20638;-59
2022/12/19 08:14:40;;;;;;;16.97;3.40;;;13.60;99.90;;;;;;5010432;28;20653;-57
2022/12/19 08:17:05;;;;;;;23.07;4.07;;;13.40;99.90;;;;;;5010488;28;20253;-57
2022/12/19 08:19:31;;;;;;;28.77;4.60;;;;;;;;;;5007249;28;20186;-58
2022/12/19 08:21:57;;;;;;;34.73;5.40;;;13.50;99.90;;;;;;5008459;28;20213;-58
2022/12/19 08:24:23;;;;;;;31.73;4.43;;;13.40;99.90;;;;;;5005639;28;20230;-57
2022/12/19 08:26:48;;;;;;;34.50;4.37;;;13.70;99.90;;;;;;5000676;28;20190;-58
2022/12/19 08:29:14;;;;;;;25.27;3.80;;;13.20;99.90;;;;;;5010097;28;20285;-57
2022/12/19 08:31:40;;;;;;;20.73;3.97;;;13.70;99.90;;;;;;5002564;28;20546;-58
2022/12/19 08:34:05;;;;;;;23.03;3.27;;;13.60;99.90;;;;;;5007975;28;20580;-58
2022/12/19 08:36:31;;;;;;;15.80;2.57;;;13.50;99.90;;;;;;5010479;28;20180;-58
2022/12/19 08:38:57;;;;;;;19.83;2.63;;;;;;;;;;5009362;28;20194;-58
2022/12/19 08:41:23;;;;;;;13.57;2.50;;;13.70;99.90;;;;;;5000254;28;20186;-58
2022/12/19 08:43:51;;;;;;;12.17;1.83;;;13.60;99.90;;;;;;5011316;28;20189;-58
2022/12/19 08:46:18;;;;;;;8.60;1.80;;;13.50;99.90;;;;;;5011171;28;20177;-58
2022/12/19 08:48:44;;;;;;;7.27;1.17;;;;;;;;;;5011184;28;20249;-58
2022/12/19 08:51:11;;;;;;;11.53;2.13;;;13.40;99.90;;;;;;5011253;28;20591;-58
2022/12/19 08:53:39;;;;;;;8.47;2.77;;;13.70;99.90;;;;;;5010513;28;20214;-59
2022/12/19 08:56:17;;;;;;;8.97;1.70;;;13.30;99.90;;;;;;5010639;28;20202;-58
2022/12/19 08:58:43;;;;;;;8.87;1.37;;;13.40;99.90;;;;;;5008902;28;20227;-59
2022/12/19 09:01:14;;;;;;;10.90;2.07;;;13.50;99.90;;;;;;5010871;28;20292;-57
2022/12/19 09:03:41;;;;;;;8.33;1.63;;;13.70;99.90;;;;;;5008725;28;20186;-57
2022/12/19 09:06:08;;;;;;;5.17;1.27;;;13.50;99.90;;;;;;5008884;28;20261;-57
2022/12/19 09:08:35;;;;;;;7.00;1.40;;;;;;;;;;5009240;28;20209;-57
2022/12/19 09:11:12;;;;;;;6.60;1.20;;;13.50;99.90;;;;;;5010480;28;20173;-57
2022/12/19 09:13:39;;;;;;;6.87;1.27;;;13.70;99.90;;;;;;5009343;28;20218;-58
2022/12/19 09:16:13;;;;;;;15.03;2.00;;;13.60;99.90;;;;;;5009167;28;20170;-57
2022/12/19 09:18:40;;;;;;;6.83;1.00;;;13.60;99.90;;;;;;5002588;28;20174;-57
2022/12/19 09:21:06;;;;;;;7.37;1.30;;;13.60;99.90;;;;;;5011063;28;20705;-57
2022/12/19 09:23:32;;;;;;;7.43;1.00;;;13.50;99.90;;;;;;5010623;28;20183;-58
2022/12/19 09:26:03;;;;;;;5.27;0.90;;;13.60;99.90;;;;;;5011158;28;20174;-57
2022/12/19 09:28:29;;;;;;;3.13;0.80;;;13.50;99.90;;;;;;5010378;28;20171;-57
2022/12/19 09:31:00;;;;;;;2.80;1.00;;;13.70;99.90;;;;;;5010790;28;20190;-57
2022/12/19 09:33:27;;;;;;;4.50;1.03;;;13.70;99.90;;;;;;4992454;28;20297;-58
2022/12/19 09:35:54;;;;;;;3.13;0.77;;;13.70;99.90;;;;;;5014870;28;20771;-57
2022/12/19 09:38:21;;;;;;;4.40;1.33;;;13.70;99.90;;;;;;5014946;28;20607;-58
2022/12/19 09:40:57;;;;;;;6.93;1.07;;;13.90;99.90;;;;;;5012380;28;20174;-57
2022/12/19 09:43:50;;;;;;;6.23;1.13;;;13.90;99.90;;;;;;5014706;28;20656;-56
2022/12/19 09:46:46;;;;;;;11.40;1.70;;;13.60;99.90;;;;;;5014269;28;20253;-58
2022/12/19 09:49:16;;;;;;;8.43;1.30;;;13.80;99.90;;;;;;5013346;28;20287;-58
2022/12/19 09:52:10;;;;;;;5.00;1.17;;;13.60;99.90;;;;;;5013994;28;20179;-57
2022/12/19 09:54:42;;;;;;;13.97;1.80;;;13.40;99.90;;;;;;5014366;28;20202;-59
2022/12/19 09:57:35;;;;;;;4.33;0.90;;;13.70;99.90;;;;;;5013872;28;20682;-58
2022/12/19 10:00:18;;;;;;;11.20;1.67;;;13.60;99.90;;;;;;4989103;28;20235;-57
2022/12/19 10:02:53;;;;;;;7.00;1.73;;;13.80;99.90;;;;;;5012624;28;20273;-57
2022/12/19 10:05:27;;;;;;;7.87;0.90;;;13.70;99.90;;;;;;5009533;28;20218;-57
2022/12/19 10:07:53;;;;;;;7.80;1.90;;;;;;;;;;5014423;28;20175;-57
2022/12/19 10:10:47;;;;;;;8.33;1.30;;;13.90;99.90;;;;;;5013980;28;20175;-58
2022/12/19 10:13:37;;;;;;;12.00;1.83;;;14.10;99.90;;;;;;5013116;28;20309;-56
2022/12/19 10:16:41;;;;;;;11.13;1.93;;;13.90;99.90;;;;;;5011834;28;20190;-55
2022/12/19 10:19:13;;;;;;;6.97;1.60;;;13.70;99.90;;;;;;4991382;28;20194;-56
2022/12/19 10:22:03;;;;;;;6.37;1.97;;;13.60;99.90;;;;;;5003190;28;20177;-56
2022/12/19 10:24:29;;;;;;;10.50;1.70;;;;;;;;;;5012530;28;20335;-56
2022/12/19 10:27:00;;;;;;;11.87;2.00;;;14.00;99.90;;;;;;5005454;28;20175;-56
2022/12/19 10:29:32;;;;;;;15.57;1.67;;;13.50;99.90;;;;;;5013199;28;20220;-56
2022/12/19 10:32:13;;;;;;;17.83;1.53;;;13.70;99.90;;;;;;5013844;28;20166;-56
2022/12/19 10:34:42;;;;;;;14.70;2.33;;;13.70;99.90;;;;;;5013726;28;20214;-56
2022/12/19 10:37:19;;;;;;;17.30;2.17;;;13.80;99.90;;;;;;5013770;28;20175;-56
2022/12/19 10:39:45;;;;;;;10.47;1.90;;;14.10;99.90;;;;;;5013480;28;20179;-57
2022/12/19 10:42:18;;;;;;;20.93;2.67;;;13.60;99.90;;;;;;5013823;28;20659;-57
2022/12/19 10:44:46;;;;;;;10.53;2.10;;;13.90;99.90;;;;;;5012883;28;20171;-57
2022/12/19 10:47:16;;;;;;;14.17;1.87;;;13.80;99.90;;;;;;5013064;28;20183;-57
2022/12/19 10:49:42;;;;;;;14.23;2.17;;;13.50;99.90;;;;;;5013371;28;20224;-57
2022/12/19 10:52:10;;;;;;;11.07;1.90;;;13.70;99.90;;;;;;5013179;28;20175;-57
2022/12/19 10:54:38;;;;;;;15.53;2.50;;;;;;;;;;5013320;28;20212;-58
2022/12/19 10:57:24;;;;;;;15.30;2.37;;;13.80;99.90;;;;;;5013356;28;20171;-59
2022/12/19 10:59:59;;;;;;;16.77;2.33;;;13.70;99.90;;;;;;5012712;28;20256;-60
2022/12/19 11:02:36;;;;;;;15.67;2.83;;;13.70;99.90;;;;;;5012798;28;20617;-59
2022/12/19 11:05:05;;;;;;;17.83;1.83;;;14.90;99.90;;;;;;5012948;28;20178;-60
2022/12/19 11:07:31;;;;;;;6.70;1.53;;;13.50;99.90;;;;;;5013203;28;20178;-59
2022/12/19 11:09:56;;;;;;;21.93;3.00;;;13.40;99.90;;;;;;5013113;28;20533;-60
2022/12/19 11:12:27;;;;;;;17.13;3.13;;;13.60;99.90;;;;;;5012891;28;20189;-60
2022/12/19 11:15:09;;;;;;;16.23;2.60;;;13.50;99.90;;;;;;5013036;28;20297;-60
2022/12/19 11:17:38;;;;;;;17.57;2.20;;;13.50;99.90;;;;;;5010958;28;20179;-59
2022/12/19 11:20:18;;;;;;;14.33;1.97;;;13.40;99.90;;;;;;4993558;28;20517;-59
2022/12/19 11:22:55;;;;;;;10.80;1.67;;;13.30;99.90;;;;;;4986112;28;20199;-60
2022/12/19 11:25:29;;;;;;;7.73;2.13;;;13.90;99.90;;;;;;5000866;28;20167;-60
2022/12/19 11:27:55;;;;;;;12.03;2.07;;;13.40;99.90;;;;;;5006465;28;20177;-59
2022/12/19 11:30:26;;;;;;;12.13;1.77;;;13.40;99.90;;;;;;5012649;28;20266;-60
2022/12/19 11:33:16;;;;;;;19.57;2.70;;;13.60;99.90;;;;;;5012713;28;20202;-59
2022/12/19 11:35:51;;;;;;;20.30;2.33;;;13.20;99.90;;;;;;5012663;28;20194;-59
2022/12/19 11:38:34;;;;;;;10.63;1.20;;;13.60;99.90;;;;;;5012634;28;20653;-58
2022/12/19 11:41:11;;;;;;;14.97;1.83;;;13.20;99.90;;;;;;5011935;28;20240;-59
2022/12/19 11:43:55;;;;;;;16.13;2.43;;;13.60;99.90;;;;;;5012227;28;20179;-57
2022/12/19 11:46:50;;;;;;;22.63;2.90;;;13.90;99.90;;;;;;5011853;28;20974;-59
2022/12/19 11:49:30;;;;;;;12.77;2.43;;;13.50;99.90;;;;;;5009950;28;20459;-59
2022/12/19 11:52:23;;;;;;;14.93;2.90;;;13.50;99.90;;;;;;5009495;28;20210;-58
2022/12/19 11:55:20;;;;;;;17.40;2.60;;;13.60;99.90;;;;;;5009967;28;20213;-58
2022/12/19 11:57:46;;;;;;;19.10;3.47;;;13.70;99.90;;;;;;5005361;28;20556;-58
2022/12/19 12:00:17;;;;;;;15.70;2.40;;;13.90;99.90;;;;;;5011566;28;20174;-59
2022/12/19 12:02:58;;;;;;;17.40;2.70;;;13.40;99.90;;;;;;5012098;28;20194;-58
2022/12/19 12:05:43;;;;;;;12.80;1.73;;;13.90;99.90;;;;;;5011382;28;20180;-59
2022/12/19 12:08:23;;;;;;;16.43;3.07;;;13.70;99.90;;;;;;5011653;28;20179;-59
2022/12/19 12:10:59;;;;;;;17.43;1.87;;;12.40;99.90;;;;;;4992473;28;20175;-59
2022/12/19 12:13:44;;;;;;;14.27;2.57;;;13.70;99.90;;;;;;4992276;28;20203;-59
2022/12/19 12:16:15;;;;;;;7.30;1.57;;;13.60;99.90;;;;;;4992523;28;20233;-58
2022/12/19 12:18:41;;;;;;;7.43;1.27;;;;;;;;;;4992373;28;20557;-58
2022/12/19 12:21:22;;;;;;;8.33;1.50;;;13.70;99.90;;;;;;5011527;28;20709;-58
2022/12/19 12:24:11;;;;;;;11.00;1.40;;;13.70;99.90;;;;;;5012010;28;20186;-58
2022/12/19 12:26:43;;;;;;;5.70;1.23;;;13.80;99.90;;;;;;5011399;28;20217;-58
2022/12/19 12:29:37;;;;;;;5.47;1.50;;;13.70;99.90;;;;;;5011596;28;20185;-58
2022/12/19 12:32:22;;;;;;;8.53;1.60;;;13.60;99.90;;;;;;5007765;28;20548;-58
2022/12/19 12:35:12;;;;;;;10.40;1.47;;;13.80;99.90;;;;;;5009956;28;20255;-57
2022/12/19 12:37:55;;;;;;;10.73;2.07;;;13.90;99.90;;;;;;5011244;28;20171;-58
2022/12/19 12:40:39;;;;;;;8.50;1.60;;;13.90;99.90;;;;;;5010650;28;20235;-58
2022/12/19 12:43:24;;;;;;;7.90;1.73;;;13.70;99.90;;;;;;5011373;28;20174;-58
2022/12/19 12:45:49;;;;;;;21.40;2.73;;;13.90;99.90;;;;;;5002787;28;20233;-59
2022/12/19 12:48:39;;;;;;;10.57;1.67;;;13.80;99.90;;;;;;5011429;28;20253;-58
2022/12/19 12:51:06;;;;;;;13.53;2.73;;;13.60;99.90;;;;;;5011337;28;20179;-58
2022/12/19 12:53:36;;;;;;;12.13;2.60;;;13.80;99.90;;;;;;5011757;28;20218;-60
2022/12/19 12:56:05;;;;;;;10.77;2.30;;;13.70;99.90;;;;;;5010865;28;20637;-56
2022/12/19 12:59:03;;;;;;;10.07;1.70;;;13.90;99.90;;;;;;5010871;28;20171;-55
2022/12/19 13:01:29;;;;;;;13.23;1.67;;;;;;;;;;5011202;28;20186;-58
2022/12/19 13:04:27;;;;;;;20.70;1.90;;;13.80;99.90;;;;;;5011303;28;20163;-58
2022/12/19 13:06:53;;;;;;;19.53;3.87;;;;;;;;;;5010687;28;20194;-57
2022/12/19 13:09:30;;;;;;;12.63;2.83;;;13.80;99.90;;;;;;5010524;28;20594;-58
2022/12/19 13:15:33;;;;;;;15.67;2.30;;;13.60;99.90;;;;;;4991552;28;20719;-57